sensor_id;sensor_type;location;lat;lon;timestamp;P1;durP1;ratioP1;P2;durP2;ratioP2
42702;SDS011;28341;52.064;4.920;2022-08-20T00:01:49;14.45;;;12.30;;
42702;SDS011;28341;52.064;4.920;2022-08-20T00:03:54;16.42;;;13.70;;
42702;SDS011;28341;52.064;4.920;2022-08-20T00:06:02;15.10;;;13.50;;
42702;SDS011;28341;52.064;4.920;2022-08-20T00:08:09;13.55;;;12.18;;
42702;SDS011;28341;52.064;4.920;2022-08-20T00:10:14;14.32;;;11.50;;
42702;SDS011;28341;52.064;4.920;2022-08-20T00:12:19;18.02;;;14.27;;
42702;SDS011;28341;52.064;4.920;2022-08-20T00:14:23;21.48;;;14.35;;
42702;SDS011;28341;52.064;4.920;2022-08-20T00:16:28;16.63;;;13.57;;
42702;SDS011;28341;52.064;4.920;2022-08-20T00:18:36;15.43;;;12.73;;
42702;SDS011;28341;52.064;4.920;2022-08-20T00:20:45;14.82;;;12.43;;
42702;SDS011;28341;52.064;4.920;2022-08-20T00:22:53;17.98;;;13.02;;
42702;SDS011;28341;52.064;4.920;2022-08-20T00:24:58;18.33;;;13.85;;
42702;SDS011;28341;52.064;4.920;2022-08-20T00:27:03;15.95;;;12.70;;
42702;SDS011;28341;52.064;4.920;2022-08-20T00:29:07;15.98;;;13.65;;
42702;SDS011;28341;52.064;4.920;2022-08-20T00:31:13;17.48;;;14.55;;
42702;SDS011;28341;52.064;4.920;2022-08-20T00:33:20;16.27;;;13.23;;
42702;SDS011;28341;52.064;4.920;2022-08-20T00:35:27;16.98;;;13.73;;
42702;SDS011;28341;52.064;4.920;2022-08-20T00:37:34;18.67;;;14.38;;
42702;SDS011;28341;52.064;4.920;2022-08-20T00:39:43;13.73;;;12.25;;
42702;SDS011;28341;52.064;4.920;2022-08-20T00:41:47;18.27;;;13.20;;
42702;SDS011;28341;52.064;4.920;2022-08-20T00:43:55;19.58;;;13.55;;
42702;SDS011;28341;52.064;4.920;2022-08-20T00:46:12;22.08;;;14.13;;
42702;SDS011;28341;52.064;4.920;2022-08-20T00:48:26;14.52;;;12.93;;
42702;SDS011;28341;52.064;4.920;2022-08-20T00:50:34;15.43;;;12.55;;
42702;SDS011;28341;52.064;4.920;2022-08-20T00:52:39;14.38;;;11.48;;
42702;SDS011;28341;52.064;4.920;2022-08-20T00:54:49;17.63;;;13.90;;
42702;SDS011;28341;52.064;4.920;2022-08-20T00:56:58;22.92;;;16.30;;
42702;SDS011;28341;52.064;4.920;2022-08-20T00:59:07;19.05;;;13.80;;
42702;SDS011;28341;52.064;4.920;2022-08-20T01:01:13;18.20;;;11.85;;
42702;SDS011;28341;52.064;4.920;2022-08-20T01:03:19;17.05;;;11.38;;
42702;SDS011;28341;52.064;4.920;2022-08-20T01:05:23;18.08;;;12.30;;
42702;SDS011;28341;52.064;4.920;2022-08-20T01:07:28;13.93;;;12.02;;
42702;SDS011;28341;52.064;4.920;2022-08-20T01:09:35;16.63;;;12.05;;
42702;SDS011;28341;52.064;4.920;2022-08-20T01:11:43;16.08;;;10.52;;
42702;SDS011;28341;52.064;4.920;2022-08-20T01:13:48;17.13;;;9.75;;
42702;SDS011;28341;52.064;4.920;2022-08-20T01:15:53;18.27;;;11.90;;
42702;SDS011;28341;52.064;4.920;2022-08-20T01:17:58;18.25;;;12.32;;
42702;SDS011;28341;52.064;4.920;2022-08-20T01:20:04;18.50;;;11.25;;
42702;SDS011;28341;52.064;4.920;2022-08-20T01:22:12;18.15;;;11.60;;
42702;SDS011;28341;52.064;4.920;2022-08-20T01:24:36;19.05;;;11.95;;
42702;SDS011;28341;52.064;4.920;2022-08-20T01:26:46;24.88;;;12.07;;
42702;SDS011;28341;52.064;4.920;2022-08-20T01:28:52;19.30;;;10.15;;
42702;SDS011;28341;52.064;4.920;2022-08-20T01:30:58;24.05;;;10.27;;
42702;SDS011;28341;52.064;4.920;2022-08-20T01:33:02;21.38;;;10.60;;
42702;SDS011;28341;52.064;4.920;2022-08-20T01:35:08;18.63;;;10.02;;
42702;SDS011;28341;52.064;4.920;2022-08-20T01:37:12;17.45;;;9.18;;
42702;SDS011;28341;52.064;4.920;2022-08-20T01:39:17;17.55;;;10.15;;
42702;SDS011;28341;52.064;4.920;2022-08-20T01:41:28;26.23;;;10.70;;
42702;SDS011;28341;52.064;4.920;2022-08-20T01:43:53;16.23;;;9.63;;
42702;SDS011;28341;52.064;4.920;2022-08-20T01:45:59;18.15;;;9.25;;
42702;SDS011;28341;52.064;4.920;2022-08-20T01:48:04;17.27;;;9.40;;
42702;SDS011;28341;52.064;4.920;2022-08-20T01:50:10;16.52;;;8.73;;
42702;SDS011;28341;52.064;4.920;2022-08-20T01:52:23;15.57;;;9.45;;
42702;SDS011;28341;52.064;4.920;2022-08-20T01:54:31;14.60;;;8.32;;
42702;SDS011;28341;52.064;4.920;2022-08-20T01:56:36;15.00;;;8.50;;
42702;SDS011;28341;52.064;4.920;2022-08-20T01:59:00;17.55;;;8.43;;
42702;SDS011;28341;52.064;4.920;2022-08-20T02:01:16;17.58;;;8.55;;
42702;SDS011;28341;52.064;4.920;2022-08-20T02:03:23;17.70;;;8.68;;
42702;SDS011;28341;52.064;4.920;2022-08-20T02:05:30;15.77;;;7.75;;
42702;SDS011;28341;52.064;4.920;2022-08-20T02:07:35;15.02;;;6.93;;
42702;SDS011;28341;52.064;4.920;2022-08-20T02:09:40;20.88;;;7.03;;
42702;SDS011;28341;52.064;4.920;2022-08-20T02:11:45;14.10;;;6.40;;
42702;SDS011;28341;52.064;4.920;2022-08-20T02:13:55;13.48;;;5.97;;
42702;SDS011;28341;52.064;4.920;2022-08-20T02:16:00;13.57;;;5.70;;
42702;SDS011;28341;52.064;4.920;2022-08-20T02:18:05;11.40;;;5.90;;
42702;SDS011;28341;52.064;4.920;2022-08-20T02:20:13;13.07;;;5.80;;
42702;SDS011;28341;52.064;4.920;2022-08-20T02:22:20;18.58;;;6.93;;
42702;SDS011;28341;52.064;4.920;2022-08-20T02:24:29;12.70;;;6.22;;
42702;SDS011;28341;52.064;4.920;2022-08-20T02:26:34;20.50;;;8.32;;
42702;SDS011;28341;52.064;4.920;2022-08-20T02:28:39;14.25;;;7.28;;
42702;SDS011;28341;52.064;4.920;2022-08-20T02:30:49;11.05;;;6.32;;
42702;SDS011;28341;52.064;4.920;2022-08-20T02:32:55;14.20;;;7.40;;
42702;SDS011;28341;52.064;4.920;2022-08-20T02:35:01;13.02;;;6.90;;
42702;SDS011;28341;52.064;4.920;2022-08-20T02:37:08;14.02;;;6.55;;
42702;SDS011;28341;52.064;4.920;2022-08-20T02:39:14;13.52;;;6.22;;
42702;SDS011;28341;52.064;4.920;2022-08-20T02:41:18;14.20;;;6.13;;
42702;SDS011;28341;52.064;4.920;2022-08-20T02:43:23;11.52;;;6.32;;
42702;SDS011;28341;52.064;4.920;2022-08-20T02:45:27;11.80;;;6.22;;
42702;SDS011;28341;52.064;4.920;2022-08-20T02:47:41;15.52;;;7.88;;
42702;SDS011;28341;52.064;4.920;2022-08-20T02:49:46;16.67;;;7.03;;
42702;SDS011;28341;52.064;4.920;2022-08-20T02:51:51;13.18;;;6.28;;
42702;SDS011;28341;52.064;4.920;2022-08-20T02:53:55;12.68;;;6.97;;
42702;SDS011;28341;52.064;4.920;2022-08-20T02:56:00;13.20;;;6.32;;
42702;SDS011;28341;52.064;4.920;2022-08-20T02:58:05;15.75;;;6.22;;
42702;SDS011;28341;52.064;4.920;2022-08-20T03:00:12;14.43;;;5.75;;
42702;SDS011;28341;52.064;4.920;2022-08-20T03:02:19;13.80;;;5.97;;
42702;SDS011;28341;52.064;4.920;2022-08-20T03:04:26;11.68;;;5.50;;
42702;SDS011;28341;52.064;4.920;2022-08-20T03:06:31;9.68;;;5.35;;
42702;SDS011;28341;52.064;4.920;2022-08-20T03:08:35;11.07;;;5.70;;
42702;SDS011;28341;52.064;4.920;2022-08-20T03:10:41;11.88;;;5.80;;
42702;SDS011;28341;52.064;4.920;2022-08-20T03:12:48;14.18;;;6.85;;
42702;SDS011;28341;52.064;4.920;2022-08-20T03:14:52;12.63;;;5.80;;
42702;SDS011;28341;52.064;4.920;2022-08-20T03:16:57;17.40;;;6.55;;
42702;SDS011;28341;52.064;4.920;2022-08-20T03:19:01;11.05;;;6.05;;
42702;SDS011;28341;52.064;4.920;2022-08-20T03:21:08;12.32;;;5.93;;
42702;SDS011;28341;52.064;4.920;2022-08-20T03:23:15;11.27;;;5.63;;
42702;SDS011;28341;52.064;4.920;2022-08-20T03:25:20;15.25;;;5.53;;
42702;SDS011;28341;52.064;4.920;2022-08-20T03:27:27;15.63;;;5.55;;
42702;SDS011;28341;52.064;4.920;2022-08-20T03:29:31;14.65;;;5.78;;
42702;SDS011;28341;52.064;4.920;2022-08-20T03:31:36;14.82;;;5.55;;
42702;SDS011;28341;52.064;4.920;2022-08-20T03:33:40;11.00;;;4.50;;
42702;SDS011;28341;52.064;4.920;2022-08-20T03:35:45;12.50;;;5.72;;
42702;SDS011;28341;52.064;4.920;2022-08-20T03:37:52;9.88;;;5.60;;
42702;SDS011;28341;52.064;4.920;2022-08-20T03:39:57;13.25;;;5.35;;
42702;SDS011;28341;52.064;4.920;2022-08-20T03:42:03;9.25;;;4.43;;
42702;SDS011;28341;52.064;4.920;2022-08-20T03:44:08;12.38;;;5.38;;
42702;SDS011;28341;52.064;4.920;2022-08-20T03:46:12;10.13;;;4.80;;
42702;SDS011;28341;52.064;4.920;2022-08-20T03:48:18;12.18;;;5.43;;
42702;SDS011;28341;52.064;4.920;2022-08-20T03:50:26;11.73;;;5.55;;
42702;SDS011;28341;52.064;4.920;2022-08-20T03:52:32;14.52;;;6.75;;
42702;SDS011;28341;52.064;4.920;2022-08-20T03:54:39;10.18;;;5.38;;
42702;SDS011;28341;52.064;4.920;2022-08-20T03:56:45;14.40;;;6.80;;
42702;SDS011;28341;52.064;4.920;2022-08-20T03:58:49;13.73;;;6.32;;
42702;SDS011;28341;52.064;4.920;2022-08-20T04:00:54;12.75;;;7.13;;
42702;SDS011;28341;52.064;4.920;2022-08-20T04:02:58;10.52;;;6.60;;
42702;SDS011;28341;52.064;4.920;2022-08-20T04:05:04;11.68;;;6.45;;
42702;SDS011;28341;52.064;4.920;2022-08-20T04:07:10;12.98;;;7.00;;
42702;SDS011;28341;52.064;4.920;2022-08-20T04:09:17;9.18;;;6.38;;
42702;SDS011;28341;52.064;4.920;2022-08-20T04:11:24;12.60;;;6.88;;
42702;SDS011;28341;52.064;4.920;2022-08-20T04:13:28;12.43;;;5.90;;
42702;SDS011;28341;52.064;4.920;2022-08-20T04:15:34;11.98;;;6.72;;
42702;SDS011;28341;52.064;4.920;2022-08-20T04:17:39;11.18;;;6.03;;
42702;SDS011;28341;52.064;4.920;2022-08-20T04:19:45;13.60;;;6.60;;
42702;SDS011;28341;52.064;4.920;2022-08-20T04:21:50;15.07;;;6.72;;
42702;SDS011;28341;52.064;4.920;2022-08-20T04:23:54;12.50;;;6.95;;
42702;SDS011;28341;52.064;4.920;2022-08-20T04:25:58;12.13;;;6.30;;
42702;SDS011;28341;52.064;4.920;2022-08-20T04:28:07;9.95;;;6.57;;
42702;SDS011;28341;52.064;4.920;2022-08-20T04:30:16;10.38;;;6.20;;
42702;SDS011;28341;52.064;4.920;2022-08-20T04:32:22;12.07;;;7.65;;
42702;SDS011;28341;52.064;4.920;2022-08-20T04:34:27;13.52;;;7.97;;
42702;SDS011;28341;52.064;4.920;2022-08-20T04:36:31;13.38;;;7.32;;
42702;SDS011;28341;52.064;4.920;2022-08-20T04:38:36;11.48;;;7.35;;
42702;SDS011;28341;52.064;4.920;2022-08-20T04:40:40;8.15;;;6.80;;
42702;SDS011;28341;52.064;4.920;2022-08-20T04:42:57;16.17;;;8.65;;
42702;SDS011;28341;52.064;4.920;2022-08-20T04:45:04;14.23;;;8.90;;
42702;SDS011;28341;52.064;4.920;2022-08-20T04:47:10;16.73;;;9.63;;
42702;SDS011;28341;52.064;4.920;2022-08-20T04:49:15;10.32;;;8.20;;
42702;SDS011;28341;52.064;4.920;2022-08-20T04:51:25;16.45;;;8.73;;
42702;SDS011;28341;52.064;4.920;2022-08-20T04:53:30;14.45;;;8.70;;
42702;SDS011;28341;52.064;4.920;2022-08-20T04:55:35;14.52;;;7.78;;
42702;SDS011;28341;52.064;4.920;2022-08-20T04:57:42;14.82;;;8.88;;
42702;SDS011;28341;52.064;4.920;2022-08-20T04:59:46;10.35;;;7.82;;
42702;SDS011;28341;52.064;4.920;2022-08-20T05:01:54;14.70;;;7.57;;
42702;SDS011;28341;52.064;4.920;2022-08-20T05:03:58;15.23;;;8.52;;
42702;SDS011;28341;52.064;4.920;2022-08-20T05:06:02;11.48;;;8.30;;
42702;SDS011;28341;52.064;4.920;2022-08-20T05:08:08;16.27;;;8.50;;
42702;SDS011;28341;52.064;4.920;2022-08-20T05:10:13;15.10;;;9.38;;
42702;SDS011;28341;52.064;4.920;2022-08-20T05:12:21;15.77;;;9.07;;
42702;SDS011;28341;52.064;4.920;2022-08-20T05:14:25;17.13;;;8.65;;
42702;SDS011;28341;52.064;4.920;2022-08-20T05:16:30;14.82;;;8.82;;
42702;SDS011;28341;52.064;4.920;2022-08-20T05:18:42;19.13;;;8.98;;
42702;SDS011;28341;52.064;4.920;2022-08-20T05:20:47;16.38;;;9.75;;
42702;SDS011;28341;52.064;4.920;2022-08-20T05:22:51;14.23;;;9.00;;
42702;SDS011;28341;52.064;4.920;2022-08-20T05:24:56;12.18;;;7.55;;
42702;SDS011;28341;52.064;4.920;2022-08-20T05:27:01;13.30;;;8.20;;
42702;SDS011;28341;52.064;4.920;2022-08-20T05:29:05;14.10;;;9.13;;
42702;SDS011;28341;52.064;4.920;2022-08-20T05:31:10;13.50;;;9.30;;
42702;SDS011;28341;52.064;4.920;2022-08-20T05:33:15;11.43;;;8.27;;
42702;SDS011;28341;52.064;4.920;2022-08-20T05:35:23;19.55;;;10.05;;
42702;SDS011;28341;52.064;4.920;2022-08-20T05:37:28;14.45;;;9.25;;
42702;SDS011;28341;52.064;4.920;2022-08-20T05:39:33;16.48;;;8.88;;
42702;SDS011;28341;52.064;4.920;2022-08-20T05:41:38;12.27;;;8.55;;
42702;SDS011;28341;52.064;4.920;2022-08-20T05:43:43;18.45;;;10.10;;
42702;SDS011;28341;52.064;4.920;2022-08-20T05:45:48;18.50;;;10.07;;
42702;SDS011;28341;52.064;4.920;2022-08-20T05:47:53;14.55;;;9.73;;
42702;SDS011;28341;52.064;4.920;2022-08-20T05:49:57;15.25;;;9.93;;
42702;SDS011;28341;52.064;4.920;2022-08-20T05:52:05;16.02;;;11.05;;
42702;SDS011;28341;52.064;4.920;2022-08-20T05:54:09;18.75;;;10.15;;
42702;SDS011;28341;52.064;4.920;2022-08-20T05:56:14;16.92;;;10.38;;
42702;SDS011;28341;52.064;4.920;2022-08-20T05:58:22;19.02;;;10.20;;
42702;SDS011;28341;52.064;4.920;2022-08-20T06:02:37;20.83;;;10.43;;
42702;SDS011;28341;52.064;4.920;2022-08-20T06:04:54;17.63;;;9.98;;
42702;SDS011;28341;52.064;4.920;2022-08-20T06:07:01;20.20;;;10.98;;
42702;SDS011;28341;52.064;4.920;2022-08-20T06:09:09;17.88;;;11.27;;
42702;SDS011;28341;52.064;4.920;2022-08-20T06:11:13;14.13;;;9.30;;
42702;SDS011;28341;52.064;4.920;2022-08-20T06:13:18;23.75;;;11.30;;
42702;SDS011;28341;52.064;4.920;2022-08-20T06:15:22;20.70;;;10.20;;
42702;SDS011;28341;52.064;4.920;2022-08-20T06:17:27;16.02;;;9.57;;
42702;SDS011;28341;52.064;4.920;2022-08-20T06:19:33;21.95;;;9.13;;
42702;SDS011;28341;52.064;4.920;2022-08-20T06:21:38;25.00;;;8.98;;
42702;SDS011;28341;52.064;4.920;2022-08-20T06:23:45;17.42;;;8.45;;
42702;SDS011;28341;52.064;4.920;2022-08-20T06:25:50;24.45;;;9.88;;
42702;SDS011;28341;52.064;4.920;2022-08-20T06:27:54;20.27;;;8.07;;
42702;SDS011;28341;52.064;4.920;2022-08-20T06:29:59;19.75;;;8.35;;
42702;SDS011;28341;52.064;4.920;2022-08-20T06:32:04;21.45;;;8.20;;
42702;SDS011;28341;52.064;4.920;2022-08-20T06:34:09;16.30;;;7.00;;
42702;SDS011;28341;52.064;4.920;2022-08-20T06:36:14;15.32;;;7.07;;
42702;SDS011;28341;52.064;4.920;2022-08-20T06:38:18;19.67;;;7.10;;
42702;SDS011;28341;52.064;4.920;2022-08-20T06:40:27;19.10;;;6.85;;
42702;SDS011;28341;52.064;4.920;2022-08-20T06:42:33;22.23;;;7.18;;
42702;SDS011;28341;52.064;4.920;2022-08-20T06:44:42;15.93;;;6.65;;
42702;SDS011;28341;52.064;4.920;2022-08-20T06:46:49;22.48;;;6.20;;
42702;SDS011;28341;52.064;4.920;2022-08-20T06:48:55;15.60;;;5.72;;
42702;SDS011;28341;52.064;4.920;2022-08-20T06:51:00;15.75;;;5.28;;
42702;SDS011;28341;52.064;4.920;2022-08-20T06:53:05;13.65;;;4.40;;
42702;SDS011;28341;52.064;4.920;2022-08-20T06:55:12;27.23;;;15.85;;
42702;SDS011;28341;52.064;4.920;2022-08-20T06:57:20;19.13;;;7.32;;
42702;SDS011;28341;52.064;4.920;2022-08-20T06:59:25;14.60;;;5.00;;
42702;SDS011;28341;52.064;4.920;2022-08-20T07:01:29;20.38;;;5.45;;
42702;SDS011;28341;52.064;4.920;2022-08-20T07:03:35;31.05;;;14.32;;
42702;SDS011;28341;52.064;4.920;2022-08-20T07:05:41;36.15;;;23.95;;
42702;SDS011;28341;52.064;4.920;2022-08-20T07:07:47;17.33;;;9.00;;
42702;SDS011;28341;52.064;4.920;2022-08-20T07:09:57;14.55;;;4.00;;
42702;SDS011;28341;52.064;4.920;2022-08-20T07:12:02;11.38;;;3.58;;
42702;SDS011;28341;52.064;4.920;2022-08-20T07:14:12;13.05;;;3.83;;
42702;SDS011;28341;52.064;4.920;2022-08-20T07:16:16;10.77;;;4.20;;
42702;SDS011;28341;52.064;4.920;2022-08-20T07:18:21;18.13;;;6.72;;
42702;SDS011;28341;52.064;4.920;2022-08-20T07:20:26;27.15;;;17.10;;
42702;SDS011;28341;52.064;4.920;2022-08-20T07:22:32;13.88;;;3.45;;
42702;SDS011;28341;52.064;4.920;2022-08-20T07:24:37;11.70;;;2.80;;
42702;SDS011;28341;52.064;4.920;2022-08-20T07:26:42;17.70;;;3.50;;
42702;SDS011;28341;52.064;4.920;2022-08-20T07:28:48;11.98;;;3.00;;
42702;SDS011;28341;52.064;4.920;2022-08-20T07:30:56;13.70;;;2.97;;
42702;SDS011;28341;52.064;4.920;2022-08-20T07:33:14;8.88;;;2.08;;
42702;SDS011;28341;52.064;4.920;2022-08-20T07:35:18;12.25;;;2.67;;
42702;SDS011;28341;52.064;4.920;2022-08-20T07:37:23;9.02;;;2.28;;
42702;SDS011;28341;52.064;4.920;2022-08-20T07:39:27;12.73;;;2.50;;
42702;SDS011;28341;52.064;4.920;2022-08-20T07:41:32;12.60;;;3.08;;
42702;SDS011;28341;52.064;4.920;2022-08-20T07:43:36;10.85;;;2.40;;
42702;SDS011;28341;52.064;4.920;2022-08-20T07:45:41;14.80;;;3.33;;
42702;SDS011;28341;52.064;4.920;2022-08-20T07:47:48;10.38;;;2.17;;
42702;SDS011;28341;52.064;4.920;2022-08-20T07:49:53;13.63;;;3.17;;
42702;SDS011;28341;52.064;4.920;2022-08-20T07:51:57;21.92;;;12.65;;
42702;SDS011;28341;52.064;4.920;2022-08-20T07:54:01;10.68;;;2.58;;
42702;SDS011;28341;52.064;4.920;2022-08-20T07:56:07;15.30;;;3.47;;
42702;SDS011;28341;52.064;4.920;2022-08-20T07:58:14;13.63;;;3.05;;
42702;SDS011;28341;52.064;4.920;2022-08-20T08:00:22;10.18;;;2.70;;
42702;SDS011;28341;52.064;4.920;2022-08-20T08:02:27;17.15;;;3.17;;
42702;SDS011;28341;52.064;4.920;2022-08-20T08:04:35;12.13;;;3.05;;
42702;SDS011;28341;52.064;4.920;2022-08-20T08:06:39;11.70;;;3.20;;
42702;SDS011;28341;52.064;4.920;2022-08-20T08:08:44;12.90;;;2.65;;
42702;SDS011;28341;52.064;4.920;2022-08-20T08:10:50;18.05;;;2.72;;
42702;SDS011;28341;52.064;4.920;2022-08-20T08:13:05;13.50;;;3.13;;
42702;SDS011;28341;52.064;4.920;2022-08-20T08:15:13;16.52;;;3.47;;
42702;SDS011;28341;52.064;4.920;2022-08-20T08:17:21;10.40;;;2.63;;
42702;SDS011;28341;52.064;4.920;2022-08-20T08:19:25;9.88;;;2.35;;
42702;SDS011;28341;52.064;4.920;2022-08-20T08:21:40;11.65;;;2.55;;
42702;SDS011;28341;52.064;4.920;2022-08-20T08:23:45;15.82;;;3.20;;
42702;SDS011;28341;52.064;4.920;2022-08-20T08:25:50;12.75;;;2.13;;
42702;SDS011;28341;52.064;4.920;2022-08-20T08:27:54;15.05;;;2.65;;
42702;SDS011;28341;52.064;4.920;2022-08-20T08:29:59;17.48;;;2.53;;
42702;SDS011;28341;52.064;4.920;2022-08-20T08:32:05;12.35;;;2.15;;
42702;SDS011;28341;52.064;4.920;2022-08-20T08:34:10;14.55;;;2.78;;
42702;SDS011;28341;52.064;4.920;2022-08-20T08:36:15;10.60;;;2.25;;
42702;SDS011;28341;52.064;4.920;2022-08-20T08:38:22;10.98;;;2.45;;
42702;SDS011;28341;52.064;4.920;2022-08-20T08:40:28;11.65;;;2.30;;
42702;SDS011;28341;52.064;4.920;2022-08-20T08:42:34;13.93;;;3.13;;
42702;SDS011;28341;52.064;4.920;2022-08-20T08:44:45;9.77;;;2.33;;
42702;SDS011;28341;52.064;4.920;2022-08-20T08:46:51;13.48;;;2.70;;
42702;SDS011;28341;52.064;4.920;2022-08-20T08:48:58;11.73;;;2.75;;
42702;SDS011;28341;52.064;4.920;2022-08-20T08:51:05;12.85;;;2.42;;
42702;SDS011;28341;52.064;4.920;2022-08-20T08:53:15;11.52;;;2.42;;
42702;SDS011;28341;52.064;4.920;2022-08-20T08:55:26;13.20;;;2.53;;
42702;SDS011;28341;52.064;4.920;2022-08-20T08:57:31;13.98;;;2.53;;
42702;SDS011;28341;52.064;4.920;2022-08-20T08:59:36;14.20;;;3.00;;
42702;SDS011;28341;52.064;4.920;2022-08-20T09:01:41;10.55;;;2.25;;
42702;SDS011;28341;52.064;4.920;2022-08-20T09:03:49;16.38;;;3.30;;
42702;SDS011;28341;52.064;4.920;2022-08-20T09:05:55;12.55;;;2.72;;
42702;SDS011;28341;52.064;4.920;2022-08-20T09:08:02;8.27;;;2.50;;
42702;SDS011;28341;52.064;4.920;2022-08-20T09:10:11;11.45;;;2.75;;
42702;SDS011;28341;52.064;4.920;2022-08-20T09:12:19;10.77;;;2.60;;
42702;SDS011;28341;52.064;4.920;2022-08-20T09:14:27;11.65;;;2.83;;
42702;SDS011;28341;52.064;4.920;2022-08-20T09:16:31;12.20;;;2.70;;
42702;SDS011;28341;52.064;4.920;2022-08-20T09:18:36;14.80;;;2.20;;
42702;SDS011;28341;52.064;4.920;2022-08-20T09:20:40;10.20;;;2.63;;
42702;SDS011;28341;52.064;4.920;2022-08-20T09:22:44;10.27;;;1.90;;
42702;SDS011;28341;52.064;4.920;2022-08-20T09:24:49;12.23;;;2.50;;
42702;SDS011;28341;52.064;4.920;2022-08-20T09:26:54;10.23;;;2.25;;
42702;SDS011;28341;52.064;4.920;2022-08-20T09:29:01;13.35;;;2.53;;
42702;SDS011;28341;52.064;4.920;2022-08-20T09:31:05;12.60;;;2.50;;
42702;SDS011;28341;52.064;4.920;2022-08-20T09:33:09;9.38;;;2.40;;
42702;SDS011;28341;52.064;4.920;2022-08-20T09:35:14;12.35;;;3.25;;
42702;SDS011;28341;52.064;4.920;2022-08-20T09:37:18;9.35;;;2.42;;
42702;SDS011;28341;52.064;4.920;2022-08-20T09:39:22;12.02;;;2.40;;
42702;SDS011;28341;52.064;4.920;2022-08-20T09:41:27;11.27;;;2.20;;
42702;SDS011;28341;52.064;4.920;2022-08-20T09:43:31;15.63;;;2.42;;
42702;SDS011;28341;52.064;4.920;2022-08-20T09:45:38;10.68;;;2.00;;
42702;SDS011;28341;52.064;4.920;2022-08-20T09:47:42;8.95;;;1.80;;
42702;SDS011;28341;52.064;4.920;2022-08-20T09:49:47;12.38;;;2.22;;
42702;SDS011;28341;52.064;4.920;2022-08-20T09:51:52;13.63;;;2.63;;
42702;SDS011;28341;52.064;4.920;2022-08-20T09:53:56;13.15;;;2.25;;
42702;SDS011;28341;52.064;4.920;2022-08-20T09:56:01;10.77;;;2.00;;
42702;SDS011;28341;52.064;4.920;2022-08-20T09:58:07;12.40;;;2.55;;
42702;SDS011;28341;52.064;4.920;2022-08-20T10:00:16;13.52;;;2.92;;
42702;SDS011;28341;52.064;4.920;2022-08-20T10:02:24;9.23;;;2.35;;
42702;SDS011;28341;52.064;4.920;2022-08-20T10:04:29;12.52;;;2.17;;
42702;SDS011;28341;52.064;4.920;2022-08-20T10:06:37;11.00;;;2.45;;
42702;SDS011;28341;52.064;4.920;2022-08-20T10:08:42;10.70;;;2.33;;
42702;SDS011;28341;52.064;4.920;2022-08-20T10:10:46;10.13;;;2.88;;
42702;SDS011;28341;52.064;4.920;2022-08-20T10:12:51;12.15;;;2.33;;
42702;SDS011;28341;52.064;4.920;2022-08-20T10:14:55;10.70;;;2.35;;
42702;SDS011;28341;52.064;4.920;2022-08-20T10:17:00;10.80;;;2.72;;
42702;SDS011;28341;52.064;4.920;2022-08-20T10:19:08;10.43;;;4.20;;
42702;SDS011;28341;52.064;4.920;2022-08-20T10:21:12;10.93;;;2.45;;
42702;SDS011;28341;52.064;4.920;2022-08-20T10:23:18;10.93;;;2.88;;
42702;SDS011;28341;52.064;4.920;2022-08-20T10:25:22;8.18;;;2.38;;
42702;SDS011;28341;52.064;4.920;2022-08-20T10:27:28;9.40;;;2.22;;
42702;SDS011;28341;52.064;4.920;2022-08-20T10:29:32;11.93;;;2.60;;
42702;SDS011;28341;52.064;4.920;2022-08-20T10:31:37;9.85;;;2.42;;
42702;SDS011;28341;52.064;4.920;2022-08-20T10:33:41;7.70;;;2.03;;
42702;SDS011;28341;52.064;4.920;2022-08-20T10:35:48;8.00;;;2.45;;
42702;SDS011;28341;52.064;4.920;2022-08-20T10:37:53;10.00;;;2.38;;
42702;SDS011;28341;52.064;4.920;2022-08-20T10:39:57;10.98;;;2.47;;
42702;SDS011;28341;52.064;4.920;2022-08-20T10:42:01;10.48;;;2.30;;
42702;SDS011;28341;52.064;4.920;2022-08-20T10:44:06;12.55;;;2.83;;
42702;SDS011;28341;52.064;4.920;2022-08-20T10:46:11;11.02;;;2.28;;
42702;SDS011;28341;52.064;4.920;2022-08-20T10:48:16;8.95;;;2.20;;
42702;SDS011;28341;52.064;4.920;2022-08-20T10:50:20;10.10;;;2.63;;
42702;SDS011;28341;52.064;4.920;2022-08-20T10:52:27;9.30;;;2.28;;
42702;SDS011;28341;52.064;4.920;2022-08-20T10:54:32;10.55;;;2.22;;
42702;SDS011;28341;52.064;4.920;2022-08-20T10:56:40;12.32;;;2.85;;
42702;SDS011;28341;52.064;4.920;2022-08-20T10:58:45;11.27;;;2.30;;
42702;SDS011;28341;52.064;4.920;2022-08-20T11:00:49;12.20;;;3.55;;
42702;SDS011;28341;52.064;4.920;2022-08-20T11:02:53;8.55;;;2.33;;
42702;SDS011;28341;52.064;4.920;2022-08-20T11:04:58;7.60;;;1.92;;
42702;SDS011;28341;52.064;4.920;2022-08-20T11:07:09;10.63;;;2.75;;
42702;SDS011;28341;52.064;4.920;2022-08-20T11:09:23;9.40;;;2.42;;
42702;SDS011;28341;52.064;4.920;2022-08-20T11:11:27;10.02;;;2.03;;
42702;SDS011;28341;52.064;4.920;2022-08-20T11:13:33;8.52;;;2.38;;
42702;SDS011;28341;52.064;4.920;2022-08-20T11:15:43;12.25;;;2.47;;
42702;SDS011;28341;52.064;4.920;2022-08-20T11:17:48;11.05;;;2.20;;
42702;SDS011;28341;52.064;4.920;2022-08-20T11:19:52;12.98;;;3.35;;
42702;SDS011;28341;52.064;4.920;2022-08-20T11:21:57;9.70;;;2.30;;
42702;SDS011;28341;52.064;4.920;2022-08-20T11:24:02;8.98;;;2.00;;
42702;SDS011;28341;52.064;4.920;2022-08-20T11:26:09;7.70;;;2.08;;
42702;SDS011;28341;52.064;4.920;2022-08-20T11:28:22;12.27;;;2.33;;
42702;SDS011;28341;52.064;4.920;2022-08-20T11:30:31;9.15;;;2.17;;
42702;SDS011;28341;52.064;4.920;2022-08-20T11:32:37;10.30;;;2.38;;
42702;SDS011;28341;52.064;4.920;2022-08-20T11:34:42;6.53;;;1.95;;
42702;SDS011;28341;52.064;4.920;2022-08-20T11:36:47;6.47;;;2.05;;
42702;SDS011;28341;52.064;4.920;2022-08-20T11:38:51;12.13;;;2.92;;
42702;SDS011;28341;52.064;4.920;2022-08-20T11:40:59;9.18;;;2.30;;
42702;SDS011;28341;52.064;4.920;2022-08-20T11:43:06;11.00;;;2.20;;
42702;SDS011;28341;52.064;4.920;2022-08-20T11:45:11;10.15;;;2.30;;
42702;SDS011;28341;52.064;4.920;2022-08-20T11:47:19;15.73;;;3.03;;
42702;SDS011;28341;52.064;4.920;2022-08-20T11:49:25;8.02;;;2.13;;
42702;SDS011;28341;52.064;4.920;2022-08-20T11:51:30;10.60;;;2.50;;
42702;SDS011;28341;52.064;4.920;2022-08-20T11:53:34;7.55;;;2.70;;
42702;SDS011;28341;52.064;4.920;2022-08-20T11:55:38;9.48;;;2.25;;
42702;SDS011;28341;52.064;4.920;2022-08-20T11:57:43;9.65;;;2.40;;
42702;SDS011;28341;52.064;4.920;2022-08-20T11:59:53;10.23;;;2.55;;
42702;SDS011;28341;52.064;4.920;2022-08-20T12:01:59;8.52;;;2.63;;
42702;SDS011;28341;52.064;4.920;2022-08-20T12:04:04;11.45;;;2.30;;
42702;SDS011;28341;52.064;4.920;2022-08-20T12:06:08;9.82;;;2.85;;
42702;SDS011;28341;52.064;4.920;2022-08-20T12:08:13;6.55;;;2.10;;
42702;SDS011;28341;52.064;4.920;2022-08-20T12:10:18;8.93;;;2.17;;
42702;SDS011;28341;52.064;4.920;2022-08-20T12:12:25;9.05;;;2.60;;
42702;SDS011;28341;52.064;4.920;2022-08-20T12:14:29;7.90;;;2.38;;
42702;SDS011;28341;52.064;4.920;2022-08-20T12:16:36;10.05;;;2.47;;
42702;SDS011;28341;52.064;4.920;2022-08-20T12:18:41;7.95;;;1.98;;
42702;SDS011;28341;52.064;4.920;2022-08-20T12:20:45;9.07;;;1.73;;
42702;SDS011;28341;52.064;4.920;2022-08-20T12:22:50;10.38;;;2.20;;
42702;SDS011;28341;52.064;4.920;2022-08-20T12:24:54;9.45;;;2.33;;
42702;SDS011;28341;52.064;4.920;2022-08-20T12:27:07;13.07;;;3.00;;
42702;SDS011;28341;52.064;4.920;2022-08-20T12:29:12;6.28;;;2.03;;
42702;SDS011;28341;52.064;4.920;2022-08-20T12:31:16;10.48;;;2.13;;